Auggen, Germany

3:45 PM CEST on September 05, 2015 (GMT +0200)
IBADENWR84 | | Change Station
CLOSE
Current Station
Personal Weather Station
Location: Auggen, BADEN-WüRTTEMBERG
Elevation: 768 ft
Nearby Weather Stations

Elev 768 ft 47.79 °N, 7.60 °E | Updated 4 minutes ago

Mostly Cloudy
Mostly Cloudy
64.3 °F
Feels Like 64.3 °F
N
3.0
Wind Variable Wind from South
Gusts 5.0 mph

Today
High -- | Low -- °F
--% Chance of Precip.
Yesterday
High -- | Low -- °F
Precip. -- in
6:52 AM 8:03 PM
Waning Gibbous, 48% visible
Pressure 30.09 in
Visibility 6.2 miles
Clouds Few 4000 ft
Mostly Cloudy 9300 ft
Dew Point 46 °F
Humidity 52%
Rainfall 0.00 in
Snow Depth Not available.
UV 1.7 out of 12
Pollen Not available.
Air Quality Not available.
Flu Activity Not available.
METAR LFSB 051330Z 22006KT 130V290 9999 FEW040TCU BKN093 18/07 Q1019 TEMPO -SHRA
Pressure 30.09 in
Visibility 6.2 miles
Clouds Few 4000 ft
Mostly Cloudy 9300 ft
Dew Point 46 °F
Humidity 52%
Rainfall 0.00 in
Snow Depth Not available.
UV 1.7 out of 12
Pollen Not available.
Air Quality Not available.
Flu Activity Not available.
METAR LFSB 051330Z 22006KT 130V290 9999 FEW040TCU BKN093 18/07 Q1019 TEMPO -SHRA

10-Day Weather Forecast

×

Almanac

Astronomy

Sep. 05, 2015 Rise Set
Actual Time
Civil Twilight
Nautical Twilight
Astronomical Twilight
Moon
Length of Visible Light
Length of Day
Tomorrow will be .
, % of the Moon is Illuminated

Today's Extremes

Country Highs Country Lows

Community

WunderPhotos

Upload Photos

1,852,464 photos uploaded!

WunderBlogs® & News

Nearby

Air Quality

  Air Quality AQ Index Pollutant
Not available.

Snow Depth

Station Depth Elevation

Earthquake Activity

City Distance Mag. Time & Date
Minimum magnitude displayed is 2.5.

Coastal Water Temperatures

Place Temperature

Stations

Nearby Weather Stations

Station Location Temp. Windchill Dew Point Humidity Wind Precip. Elev Updated Type